createdAt,value
2023-03-26T00:00:16.000Z,8.64
2023-03-26T00:01:16.000Z,8.67
2023-03-26T00:02:16.000Z,8.67
2023-03-26T00:03:16.000Z,8.65
2023-03-26T00:04:16.000Z,8.67
2023-03-26T00:05:16.000Z,8.68
2023-03-26T00:06:16.000Z,8.67
2023-03-26T00:07:16.000Z,8.65
2023-03-26T00:08:16.000Z,8.65
2023-03-26T00:09:16.000Z,8.65
2023-03-26T00:10:16.000Z,8.65
2023-03-26T00:11:16.000Z,8.65
2023-03-26T00:12:16.000Z,8.67
2023-03-26T00:13:16.000Z,8.67
2023-03-26T00:14:16.000Z,8.68
2023-03-26T00:15:16.000Z,8.70
2023-03-26T00:16:16.000Z,8.68
2023-03-26T00:17:16.000Z,8.68
2023-03-26T00:18:16.000Z,8.68
2023-03-26T00:19:16.000Z,8.68
2023-03-26T00:20:16.000Z,8.68
2023-03-26T00:21:16.000Z,8.68
2023-03-26T00:22:16.000Z,8.71
2023-03-26T00:23:16.000Z,8.65
2023-03-26T00:24:16.000Z,8.64
2023-03-26T00:25:16.000Z,8.65
2023-03-26T00:26:16.000Z,8.65
2023-03-26T00:27:16.000Z,8.64
2023-03-26T00:28:16.000Z,8.61
2023-03-26T00:29:16.000Z,8.63
2023-03-26T00:30:16.000Z,8.63
2023-03-26T00:31:16.000Z,8.63
2023-03-26T00:32:16.000Z,8.65
2023-03-26T00:33:16.000Z,8.63
2023-03-26T00:34:16.000Z,8.61
2023-03-26T00:35:16.000Z,8.61
2023-03-26T00:36:15.000Z,8.60
2023-03-26T00:37:15.000Z,8.60
2023-03-26T00:38:15.000Z,8.60
2023-03-26T00:39:15.000Z,8.57
2023-03-26T00:40:15.000Z,8.57
2023-03-26T00:41:15.000Z,8.55
2023-03-26T00:42:15.000Z,8.55
2023-03-26T00:43:15.000Z,8.54
2023-03-26T00:43:15.000Z,8.54
2023-03-26T00:44:15.000Z,8.50
2023-03-26T00:44:15.000Z,8.50
2023-03-26T00:45:15.000Z,8.50
2023-03-26T00:45:15.000Z,8.50
2023-03-26T00:46:15.000Z,8.54
2023-03-26T00:46:15.000Z,8.54
2023-03-26T00:47:15.000Z,8.55
2023-03-26T00:47:15.000Z,8.55
2023-03-26T00:48:15.000Z,8.57
2023-03-26T00:49:15.000Z,8.57
2023-03-26T00:50:15.000Z,8.55
2023-03-26T00:51:15.000Z,8.54
2023-03-26T00:52:15.000Z,8.54
2023-03-26T00:53:15.000Z,8.57
2023-03-26T00:54:15.000Z,8.57
2023-03-26T00:55:15.000Z,8.57
2023-03-26T00:56:15.000Z,8.57
2023-03-26T00:57:15.000Z,8.58
2023-03-26T00:58:15.000Z,8.57
2023-03-26T00:58:15.000Z,8.57
2023-03-26T00:59:15.000Z,8.55
2023-03-26T00:59:15.000Z,8.55
2023-03-26T01:00:15.000Z,8.54
2023-03-26T01:00:15.000Z,8.54
2023-03-26T01:01:15.000Z,8.52
2023-03-26T01:01:15.000Z,8.52
2023-03-26T01:02:15.000Z,8.50
2023-03-26T01:02:15.000Z,8.50
2023-03-26T01:03:15.000Z,8.52
2023-03-26T01:04:15.000Z,8.50
2023-03-26T01:05:15.000Z,8.55
2023-03-26T01:06:15.000Z,8.52
2023-03-26T01:07:15.000Z,8.50
2023-03-26T01:08:15.000Z,8.50
2023-03-26T01:09:15.000Z,8.50
2023-03-26T01:10:15.000Z,8.52
2023-03-26T01:11:15.000Z,8.52
2023-03-26T01:12:15.000Z,8.52
2023-03-26T01:13:15.000Z,8.55
2023-03-26T01:14:15.000Z,8.54
2023-03-26T01:15:15.000Z,8.54
2023-03-26T01:16:15.000Z,8.54
2023-03-26T01:17:15.000Z,8.55
2023-03-26T01:18:15.000Z,8.50
2023-03-26T01:19:15.000Z,8.49
2023-03-26T01:20:15.000Z,8.47
2023-03-26T01:21:15.000Z,8.50
2023-03-26T01:22:15.000Z,8.47
2023-03-26T01:23:15.000Z,8.49
2023-03-26T01:24:15.000Z,8.46
2023-03-26T01:25:15.000Z,8.47
2023-03-26T01:26:15.000Z,8.49
2023-03-26T01:27:15.000Z,8.46
2023-03-26T01:28:15.000Z,8.46
2023-03-26T01:29:15.000Z,8.49
2023-03-26T01:30:15.000Z,8.50
2023-03-26T01:31:15.000Z,8.47
2023-03-26T01:32:15.000Z,8.46
2023-03-26T01:33:15.000Z,8.43
2023-03-26T01:34:15.000Z,8.39
2023-03-26T01:35:15.000Z,8.37
2023-03-26T01:36:15.000Z,8.34
2023-03-26T01:37:15.000Z,8.34
2023-03-26T01:38:15.000Z,8.31
2023-03-26T01:39:15.000Z,8.29
2023-03-26T01:40:15.000Z,8.28
2023-03-26T01:41:15.000Z,8.31
2023-03-26T01:42:15.000Z,8.28
2023-03-26T01:43:15.000Z,8.29
2023-03-26T01:44:15.000Z,8.31
2023-03-26T01:45:15.000Z,8.28
2023-03-26T01:46:15.000Z,8.28
2023-03-26T01:47:15.000Z,8.25
2023-03-26T01:48:15.000Z,8.25
2023-03-26T01:49:15.000Z,8.28
2023-03-26T01:50:15.000Z,8.27
2023-03-26T01:51:15.000Z,8.25
2023-03-26T01:52:15.000Z,8.25
2023-03-26T01:53:15.000Z,8.27
2023-03-26T01:54:15.000Z,8.25
2023-03-26T01:55:15.000Z,8.24
2023-03-26T01:56:15.000Z,8.25
2023-03-26T01:57:15.000Z,8.28
2023-03-26T01:58:15.000Z,8.28
2023-03-26T01:59:15.000Z,8.29
2023-03-26T02:00:15.000Z,8.29
2023-03-26T02:01:15.000Z,8.29
2023-03-26T02:02:15.000Z,8.28
2023-03-26T02:03:15.000Z,8.31
2023-03-26T02:04:15.000Z,8.29
2023-03-26T02:05:15.000Z,8.28
2023-03-26T02:06:15.000Z,8.25
2023-03-26T02:07:15.000Z,8.28
2023-03-26T02:08:15.000Z,8.25
2023-03-26T02:09:15.000Z,8.25
2023-03-26T02:10:15.000Z,8.27
2023-03-26T02:11:15.000Z,8.22
2023-03-26T02:12:15.000Z,8.24
2023-03-26T02:13:15.000Z,8.22
2023-03-26T02:14:15.000Z,8.22
2023-03-26T02:15:15.000Z,8.20
2023-03-26T02:16:15.000Z,8.21
2023-03-26T02:17:15.000Z,8.21
2023-03-26T02:18:14.000Z,8.21
2023-03-26T02:19:14.000Z,8.20
2023-03-26T02:20:14.000Z,8.20
2023-03-26T02:21:14.000Z,8.21
2023-03-26T02:22:14.000Z,8.18
2023-03-26T02:23:14.000Z,8.18
2023-03-26T02:24:14.000Z,8.14
2023-03-26T02:25:14.000Z,8.14
2023-03-26T02:26:14.000Z,8.12
2023-03-26T02:27:14.000Z,8.13
2023-03-26T02:28:14.000Z,8.10
2023-03-26T02:29:14.000Z,8.09
2023-03-26T02:30:14.000Z,8.10
2023-03-26T02:31:14.000Z,8.07
2023-03-26T02:32:14.000Z,8.03
2023-03-26T02:33:14.000Z,8.03
2023-03-26T02:34:14.000Z,8.02
2023-03-26T02:35:14.000Z,8.02
2023-03-26T02:36:14.000Z,8.03
2023-03-26T02:37:14.000Z,8.03
2023-03-26T02:38:14.000Z,8.03
2023-03-26T02:39:14.000Z,8.02
2023-03-26T02:40:14.000Z,8.00
2023-03-26T02:41:14.000Z,7.99
2023-03-26T02:42:14.000Z,7.99
2023-03-26T02:43:14.000Z,8.00
2023-03-26T02:44:14.000Z,7.95
2023-03-26T02:45:14.000Z,7.95
2023-03-26T02:46:14.000Z,7.95
2023-03-26T02:47:14.000Z,7.94
2023-03-26T02:48:14.000Z,7.94
2023-03-26T02:49:14.000Z,7.94
2023-03-26T02:50:14.000Z,7.94
2023-03-26T02:51:14.000Z,7.94
2023-03-26T02:52:14.000Z,7.95
2023-03-26T02:53:14.000Z,8.02
2023-03-26T02:54:14.000Z,7.96
2023-03-26T02:55:14.000Z,7.99
2023-03-26T02:56:14.000Z,7.96
2023-03-26T02:57:14.000Z,8.00
2023-03-26T02:58:14.000Z,8.03
2023-03-26T02:59:14.000Z,8.04
2023-03-26T03:00:14.000Z,8.06
2023-03-26T03:01:14.000Z,8.06
2023-03-26T03:02:14.000Z,8.07
2023-03-26T03:03:14.000Z,8.12
2023-03-26T03:04:14.000Z,8.12
2023-03-26T03:05:14.000Z,8.12
2023-03-26T03:06:14.000Z,8.07
2023-03-26T03:07:14.000Z,8.10
2023-03-26T03:08:14.000Z,8.10
2023-03-26T03:09:14.000Z,8.13
2023-03-26T03:10:14.000Z,8.10
2023-03-26T03:11:14.000Z,8.10
2023-03-26T03:12:14.000Z,8.12
2023-03-26T03:13:14.000Z,8.10
2023-03-26T03:14:14.000Z,8.12
2023-03-26T03:15:14.000Z,8.09
2023-03-26T03:16:14.000Z,8.12
2023-03-26T03:17:14.000Z,8.09
2023-03-26T03:18:14.000Z,8.09
2023-03-26T03:19:14.000Z,8.12
2023-03-26T03:20:14.000Z,8.06
2023-03-26T03:21:14.000Z,8.04
2023-03-26T03:22:14.000Z,8.03
2023-03-26T03:23:14.000Z,8.03
2023-03-26T03:24:14.000Z,7.99
2023-03-26T03:25:14.000Z,8.04
2023-03-26T03:26:14.000Z,8.04
2023-03-26T03:27:14.000Z,8.04
2023-03-26T03:28:14.000Z,8.06
2023-03-26T03:29:14.000Z,8.07
2023-03-26T03:30:14.000Z,8.07
2023-03-26T03:31:14.000Z,8.07
2023-03-26T03:32:14.000Z,8.09
2023-03-26T03:33:14.000Z,8.07
2023-03-26T03:34:14.000Z,8.09
2023-03-26T03:35:14.000Z,8.13
2023-03-26T03:36:14.000Z,8.12
2023-03-26T03:37:14.000Z,8.13
2023-03-26T03:38:14.000Z,8.14
2023-03-26T03:39:14.000Z,8.14
2023-03-26T03:40:14.000Z,8.17
2023-03-26T03:41:14.000Z,8.18
2023-03-26T03:42:14.000Z,8.17
2023-03-26T03:43:14.000Z,8.18
2023-03-26T03:44:14.000Z,8.20
2023-03-26T03:45:14.000Z,8.20
2023-03-26T03:46:14.000Z,8.24
2023-03-26T03:47:14.000Z,8.20
2023-03-26T03:48:14.000Z,8.22
2023-03-26T03:49:14.000Z,8.20
2023-03-26T03:50:14.000Z,8.24
2023-03-26T03:51:14.000Z,8.20
2023-03-26T03:52:14.000Z,8.21
2023-03-26T03:53:14.000Z,8.18
2023-03-26T03:54:14.000Z,8.18
2023-03-26T03:55:14.000Z,8.17
2023-03-26T03:56:14.000Z,8.12
2023-03-26T03:57:14.000Z,8.13
2023-03-26T03:58:14.000Z,8.10
2023-03-26T03:58:14.000Z,8.10
2023-03-26T03:59:14.000Z,8.13
2023-03-26T03:59:14.000Z,8.13
2023-03-26T04:00:14.000Z,8.13
2023-03-26T04:00:14.000Z,8.13
2023-03-26T04:01:14.000Z,8.12
2023-03-26T04:01:14.000Z,8.12
2023-03-26T04:02:14.000Z,8.07
2023-03-26T04:02:14.000Z,8.07
2023-03-26T04:03:13.000Z,8.04
2023-03-26T04:04:13.000Z,8.04
2023-03-26T04:05:13.000Z,8.04
2023-03-26T04:06:13.000Z,8.02
2023-03-26T04:07:13.000Z,8.03
2023-03-26T04:08:13.000Z,8.00
2023-03-26T04:09:13.000Z,8.00
2023-03-26T04:10:13.000Z,7.99
2023-03-26T04:11:13.000Z,7.95
2023-03-26T04:12:13.000Z,7.96
2023-03-26T04:13:13.000Z,7.94
2023-03-26T04:14:13.000Z,7.95
2023-03-26T04:15:13.000Z,7.91
2023-03-26T04:16:13.000Z,7.91
2023-03-26T04:17:13.000Z,7.91
2023-03-26T04:18:13.000Z,7.91
2023-03-26T04:19:13.000Z,7.94
2023-03-26T04:20:13.000Z,7.91
2023-03-26T04:21:13.000Z,7.92
2023-03-26T04:22:13.000Z,7.92
2023-03-26T04:23:13.000Z,7.92
2023-03-26T04:24:13.000Z,7.94
2023-03-26T04:25:13.000Z,7.94
2023-03-26T04:26:13.000Z,7.92
2023-03-26T04:27:13.000Z,7.95
2023-03-26T04:28:13.000Z,7.92
2023-03-26T04:29:13.000Z,7.91
2023-03-26T04:30:13.000Z,7.89
2023-03-26T04:31:13.000Z,7.92
2023-03-26T04:32:13.000Z,7.89
2023-03-26T04:33:13.000Z,7.88
2023-03-26T04:34:13.000Z,7.84
2023-03-26T04:35:13.000Z,7.85
2023-03-26T04:36:13.000Z,7.82
2023-03-26T04:37:13.000Z,7.81
2023-03-26T04:38:13.000Z,7.84
2023-03-26T04:39:13.000Z,7.82
2023-03-26T04:40:13.000Z,7.82
2023-03-26T04:41:13.000Z,7.79
2023-03-26T04:42:13.000Z,7.81
2023-03-26T04:43:13.000Z,7.77
2023-03-26T04:44:13.000Z,7.76
2023-03-26T04:45:13.000Z,7.79
2023-03-26T04:46:13.000Z,7.74
2023-03-26T04:47:13.000Z,7.76
2023-03-26T04:48:13.000Z,7.73
2023-03-26T04:49:13.000Z,7.74
2023-03-26T04:50:13.000Z,7.74
2023-03-26T04:51:13.000Z,7.76
2023-03-26T04:52:13.000Z,7.77
2023-03-26T04:53:13.000Z,7.76
2023-03-26T04:54:13.000Z,7.74
2023-03-26T04:55:13.000Z,7.76
2023-03-26T04:56:13.000Z,7.77
2023-03-26T04:57:13.000Z,7.82
2023-03-26T04:58:13.000Z,7.81
2023-03-26T04:59:13.000Z,7.82
2023-03-26T05:00:13.000Z,7.86
2023-03-26T05:01:13.000Z,7.86
2023-03-26T05:02:13.000Z,7.86
2023-03-26T05:03:13.000Z,7.92
2023-03-26T05:04:13.000Z,7.94
2023-03-26T05:05:13.000Z,7.95
2023-03-26T05:06:13.000Z,7.99
2023-03-26T05:07:13.000Z,8.00
2023-03-26T05:08:13.000Z,8.04
2023-03-26T05:09:13.000Z,8.04
2023-03-26T05:10:13.000Z,8.06
2023-03-26T05:11:13.000Z,8.10
2023-03-26T05:12:13.000Z,8.09
2023-03-26T05:13:13.000Z,8.13
2023-03-26T05:14:13.000Z,8.13
2023-03-26T05:15:13.000Z,8.17
2023-03-26T05:16:13.000Z,8.18
2023-03-26T05:17:13.000Z,8.21
2023-03-26T05:18:13.000Z,8.22
2023-03-26T05:19:13.000Z,8.25
2023-03-26T05:20:13.000Z,8.28
2023-03-26T05:21:13.000Z,8.28
2023-03-26T05:22:13.000Z,8.29
2023-03-26T05:23:13.000Z,8.32
2023-03-26T05:24:13.000Z,8.34
2023-03-26T05:25:13.000Z,8.36
2023-03-26T05:26:13.000Z,8.36
2023-03-26T05:27:13.000Z,8.39
2023-03-26T05:28:13.000Z,8.37
2023-03-26T05:29:13.000Z,8.39
2023-03-26T05:30:13.000Z,8.42
2023-03-26T05:31:13.000Z,8.43
2023-03-26T05:32:13.000Z,8.47
2023-03-26T05:33:13.000Z,8.46
2023-03-26T05:34:13.000Z,8.49
2023-03-26T05:35:13.000Z,8.54
2023-03-26T05:36:13.000Z,8.55
2023-03-26T05:37:13.000Z,8.57
2023-03-26T05:38:13.000Z,8.58
2023-03-26T05:39:13.000Z,8.58
2023-03-26T05:40:13.000Z,8.63
2023-03-26T05:41:13.000Z,8.64
2023-03-26T05:42:13.000Z,8.67
2023-03-26T05:43:13.000Z,8.67
2023-03-26T05:44:13.000Z,8.68
2023-03-26T05:45:13.000Z,8.71
2023-03-26T05:46:13.000Z,8.73
2023-03-26T05:47:13.000Z,8.70
2023-03-26T05:48:12.000Z,8.71
2023-03-26T05:49:12.000Z,8.76
2023-03-26T05:50:12.000Z,8.79
2023-03-26T05:51:12.000Z,8.78
2023-03-26T05:52:12.000Z,8.78
2023-03-26T05:53:12.000Z,8.79
2023-03-26T05:54:12.000Z,8.79
2023-03-26T05:55:12.000Z,8.82
2023-03-26T05:56:12.000Z,8.80
2023-03-26T05:57:12.000Z,8.80
2023-03-26T05:58:12.000Z,8.86
2023-03-26T05:59:12.000Z,8.85
2023-03-26T06:00:12.000Z,8.85
2023-03-26T06:01:12.000Z,8.86
2023-03-26T06:02:12.000Z,8.89
2023-03-26T06:03:12.000Z,8.91
2023-03-26T06:04:12.000Z,8.93
2023-03-26T06:05:12.000Z,8.93
2023-03-26T06:06:12.000Z,8.94
2023-03-26T06:07:12.000Z,8.94
2023-03-26T06:08:12.000Z,8.97
2023-03-26T06:09:12.000Z,8.98
2023-03-26T06:10:12.000Z,8.98
2023-03-26T06:11:12.000Z,9.01
2023-03-26T06:12:12.000Z,9.01
2023-03-26T06:13:12.000Z,9.04
2023-03-26T06:14:12.000Z,9.03
2023-03-26T06:15:12.000Z,9.03
2023-03-26T06:16:12.000Z,9.04
2023-03-26T06:17:12.000Z,9.08
2023-03-26T06:18:12.000Z,9.10
2023-03-26T06:19:12.000Z,9.10
2023-03-26T06:20:12.000Z,9.13
2023-03-26T06:21:12.000Z,9.12
2023-03-26T06:22:12.000Z,9.15
2023-03-26T06:23:12.000Z,9.15
2023-03-26T06:24:12.000Z,9.16
2023-03-26T06:25:12.000Z,9.16
2023-03-26T06:26:12.000Z,9.16
2023-03-26T06:27:12.000Z,9.19
2023-03-26T06:28:12.000Z,9.19
2023-03-26T06:29:12.000Z,9.17
2023-03-26T06:30:12.000Z,9.17
2023-03-26T06:31:12.000Z,9.17
2023-03-26T06:32:12.000Z,9.17
2023-03-26T06:33:12.000Z,9.22
2023-03-26T06:34:12.000Z,9.23
2023-03-26T06:35:12.000Z,9.23
2023-03-26T06:36:12.000Z,9.24
2023-03-26T06:37:12.000Z,9.27
2023-03-26T06:38:12.000Z,9.31
2023-03-26T06:39:12.000Z,9.34
2023-03-26T06:40:12.000Z,9.35
2023-03-26T06:41:12.000Z,9.37
2023-03-26T06:42:12.000Z,9.38
2023-03-26T06:43:12.000Z,9.44
2023-03-26T06:44:12.000Z,9.45
2023-03-26T06:45:12.000Z,9.44
2023-03-26T06:46:12.000Z,9.44
2023-03-26T06:47:12.000Z,9.49
2023-03-26T06:48:12.000Z,9.49
2023-03-26T06:49:12.000Z,9.53
2023-03-26T06:50:12.000Z,9.55
2023-03-26T06:51:12.000Z,9.55
2023-03-26T06:52:12.000Z,9.58
2023-03-26T06:53:12.000Z,9.62
2023-03-26T06:54:12.000Z,9.63
2023-03-26T06:55:12.000Z,9.65
2023-03-26T06:56:12.000Z,9.67
2023-03-26T06:57:12.000Z,9.68
2023-03-26T06:58:12.000Z,9.68
2023-03-26T06:59:12.000Z,9.71
2023-03-26T07:00:12.000Z,9.73
2023-03-26T07:01:12.000Z,9.77
2023-03-26T07:02:12.000Z,9.78
2023-03-26T07:03:12.000Z,9.77
2023-03-26T07:04:12.000Z,9.78
2023-03-26T07:05:12.000Z,9.78
2023-03-26T07:06:12.000Z,9.83
2023-03-26T07:07:12.000Z,9.88
2023-03-26T07:08:12.000Z,9.92
2023-03-26T07:09:12.000Z,9.93
2023-03-26T07:10:12.000Z,9.95
2023-03-26T07:11:12.000Z,9.98
2023-03-26T07:12:12.000Z,9.99
2023-03-26T07:13:12.000Z,10.02
2023-03-26T07:14:12.000Z,10.06
2023-03-26T07:15:12.000Z,10.11
2023-03-26T07:16:12.000Z,10.11
2023-03-26T07:17:12.000Z,10.13
2023-03-26T07:18:12.000Z,10.14
2023-03-26T07:19:12.000Z,10.17
2023-03-26T07:20:12.000Z,10.22
2023-03-26T07:21:12.000Z,10.25
2023-03-26T07:22:12.000Z,10.20
2023-03-26T07:23:12.000Z,10.22
2023-03-26T07:24:12.000Z,10.28
2023-03-26T07:25:12.000Z,10.28
2023-03-26T07:26:12.000Z,10.28
2023-03-26T07:27:12.000Z,10.28
2023-03-26T07:28:12.000Z,10.25
2023-03-26T07:29:12.000Z,10.25
2023-03-26T07:30:12.000Z,10.25
2023-03-26T07:31:12.000Z,10.25
2023-03-26T07:32:12.000Z,10.29
2023-03-26T07:33:11.000Z,10.25
2023-03-26T07:34:11.000Z,10.26
2023-03-26T07:35:11.000Z,10.20
2023-03-26T07:36:11.000Z,10.22
2023-03-26T07:37:11.000Z,10.20
2023-03-26T07:38:11.000Z,10.17
2023-03-26T07:39:11.000Z,10.17
2023-03-26T07:40:11.000Z,10.18
2023-03-26T07:41:11.000Z,10.20
2023-03-26T07:42:11.000Z,10.24
2023-03-26T07:43:11.000Z,10.25
2023-03-26T07:44:11.000Z,10.28
2023-03-26T07:45:11.000Z,10.31
2023-03-26T07:46:11.000Z,10.35
2023-03-26T07:47:11.000Z,10.39
2023-03-26T07:48:11.000Z,10.47
2023-03-26T07:49:11.000Z,10.52
2023-03-26T07:50:11.000Z,10.54
2023-03-26T07:51:11.000Z,10.60
2023-03-26T07:52:11.000Z,10.62
2023-03-26T07:53:11.000Z,10.70
2023-03-26T07:54:11.000Z,10.75
2023-03-26T07:55:11.000Z,10.76
2023-03-26T07:56:11.000Z,10.80
2023-03-26T07:57:11.000Z,10.81
2023-03-26T07:58:11.000Z,10.83
2023-03-26T07:59:11.000Z,10.88
2023-03-26T08:00:11.000Z,10.93
2023-03-26T08:01:11.000Z,10.94
2023-03-26T08:02:11.000Z,10.95
2023-03-26T08:03:11.000Z,11.01
2023-03-26T08:04:11.000Z,11.03
2023-03-26T08:05:11.000Z,11.05
2023-03-26T08:06:11.000Z,11.08
2023-03-26T08:07:11.000Z,11.05
2023-03-26T08:08:11.000Z,11.06
2023-03-26T08:09:11.000Z,11.08
2023-03-26T08:10:11.000Z,11.13
2023-03-26T08:11:11.000Z,11.16
2023-03-26T08:12:11.000Z,11.17
2023-03-26T08:13:11.000Z,11.21
2023-03-26T08:14:11.000Z,11.26
2023-03-26T08:15:11.000Z,11.24
2023-03-26T08:16:11.000Z,11.26
2023-03-26T08:17:11.000Z,11.30
2023-03-26T08:18:11.000Z,11.30
2023-03-26T08:19:11.000Z,11.33
2023-03-26T08:20:11.000Z,11.36
2023-03-26T08:21:11.000Z,11.36
2023-03-26T08:22:11.000Z,11.36
2023-03-26T08:23:11.000Z,11.38
2023-03-26T08:24:11.000Z,11.38
2023-03-26T08:25:11.000Z,11.42
2023-03-26T08:26:11.000Z,11.42
2023-03-26T08:27:11.000Z,11.44
2023-03-26T08:28:11.000Z,11.48
2023-03-26T08:29:11.000Z,11.49
2023-03-26T08:30:11.000Z,11.53
2023-03-26T08:31:11.000Z,11.56
2023-03-26T08:32:11.000Z,11.57
2023-03-26T08:33:11.000Z,11.60
2023-03-26T08:34:11.000Z,11.63
2023-03-26T08:35:11.000Z,11.63
2023-03-26T08:36:11.000Z,11.67
2023-03-26T08:37:11.000Z,11.67
2023-03-26T08:38:11.000Z,11.72
2023-03-26T08:39:11.000Z,11.77
2023-03-26T08:40:11.000Z,11.78
2023-03-26T08:41:11.000Z,11.81
2023-03-26T08:42:11.000Z,11.84
2023-03-26T08:43:11.000Z,11.85
2023-03-26T08:44:11.000Z,11.90
2023-03-26T08:45:11.000Z,11.96
2023-03-26T08:46:11.000Z,12.00
2023-03-26T08:47:11.000Z,12.01
2023-03-26T08:48:11.000Z,12.05
2023-03-26T08:49:11.000Z,12.08
2023-03-26T08:50:11.000Z,12.11
2023-03-26T08:51:11.000Z,12.15
2023-03-26T08:52:11.000Z,12.16
2023-03-26T08:53:11.000Z,12.18
2023-03-26T08:54:11.000Z,12.21
2023-03-26T08:55:11.000Z,12.25
2023-03-26T08:56:11.000Z,12.23
2023-03-26T08:57:11.000Z,12.25
2023-03-26T08:58:11.000Z,12.25
2023-03-26T08:59:11.000Z,12.29
2023-03-26T09:00:11.000Z,12.31
2023-03-26T09:01:11.000Z,12.33
2023-03-26T09:02:11.000Z,12.37
2023-03-26T09:03:11.000Z,12.40
2023-03-26T09:04:11.000Z,12.37
2023-03-26T09:05:11.000Z,12.34
2023-03-26T09:06:11.000Z,12.34
2023-03-26T09:07:11.000Z,12.33
2023-03-26T09:08:11.000Z,12.36
2023-03-26T09:09:11.000Z,12.33
2023-03-26T09:10:11.000Z,12.37
2023-03-26T09:11:11.000Z,12.36
2023-03-26T09:12:11.000Z,12.41
2023-03-26T09:13:11.000Z,12.44
2023-03-26T09:14:11.000Z,12.51
2023-03-26T09:15:11.000Z,12.52
2023-03-26T09:16:10.000Z,12.54
2023-03-26T09:17:10.000Z,12.54
2023-03-26T09:18:10.000Z,12.55
2023-03-26T09:19:10.000Z,12.55
2023-03-26T09:20:10.000Z,12.56
2023-03-26T09:21:10.000Z,12.58
2023-03-26T09:22:10.000Z,12.62
2023-03-26T09:23:10.000Z,12.66
2023-03-26T09:24:10.000Z,12.70
2023-03-26T09:25:10.000Z,12.69
2023-03-26T09:26:10.000Z,12.74
2023-03-26T09:27:10.000Z,12.74
2023-03-26T09:28:10.000Z,12.76
2023-03-26T09:29:10.000Z,12.73
2023-03-26T09:30:10.000Z,12.76
2023-03-26T09:31:10.000Z,12.85
2023-03-26T09:32:10.000Z,12.89
2023-03-26T09:33:10.000Z,12.91
2023-03-26T09:34:10.000Z,12.96
2023-03-26T09:35:10.000Z,13.03
2023-03-26T09:36:10.000Z,13.07
2023-03-26T09:37:10.000Z,13.12
2023-03-26T09:38:10.000Z,13.17
2023-03-26T09:39:10.000Z,13.22
2023-03-26T09:40:10.000Z,13.22
2023-03-26T09:41:10.000Z,13.19
2023-03-26T09:42:10.000Z,13.17
2023-03-26T09:43:10.000Z,13.17
2023-03-26T09:44:10.000Z,13.16
2023-03-26T09:45:10.000Z,13.17
2023-03-26T09:46:10.000Z,13.19
2023-03-26T09:47:10.000Z,13.21
2023-03-26T09:48:10.000Z,13.24
2023-03-26T09:49:10.000Z,13.27
2023-03-26T09:50:10.000Z,13.25
2023-03-26T09:51:10.000Z,13.22
2023-03-26T09:52:10.000Z,13.24
2023-03-26T09:53:10.000Z,13.25
2023-03-26T09:54:10.000Z,13.27
2023-03-26T09:55:10.000Z,13.31
2023-03-26T09:56:10.000Z,13.28
2023-03-26T09:57:10.000Z,13.29
2023-03-26T09:58:10.000Z,13.28
2023-03-26T09:59:10.000Z,13.29
2023-03-26T10:00:10.000Z,13.35
2023-03-26T10:01:10.000Z,13.38
2023-03-26T10:02:10.000Z,13.38
2023-03-26T10:03:10.000Z,13.38
2023-03-26T10:04:10.000Z,13.44
2023-03-26T10:05:10.000Z,13.47
2023-03-26T10:06:10.000Z,13.54
2023-03-26T10:07:10.000Z,13.57
2023-03-26T10:08:10.000Z,13.62
2023-03-26T10:09:10.000Z,13.63
2023-03-26T10:10:10.000Z,13.65
2023-03-26T10:11:10.000Z,13.66
2023-03-26T10:12:10.000Z,13.69
2023-03-26T10:13:10.000Z,13.69
2023-03-26T10:13:10.000Z,13.69
2023-03-26T10:14:10.000Z,13.76
2023-03-26T10:14:10.000Z,13.76
2023-03-26T10:15:10.000Z,13.83
2023-03-26T10:15:10.000Z,13.83
2023-03-26T10:16:10.000Z,13.91
2023-03-26T10:16:10.000Z,13.91
2023-03-26T10:17:10.000Z,14.02
2023-03-26T10:17:10.000Z,14.02
2023-03-26T10:18:10.000Z,14.04
2023-03-26T10:19:10.000Z,14.11
2023-03-26T10:20:10.000Z,14.17
2023-03-26T10:21:10.000Z,14.20
2023-03-26T10:22:10.000Z,14.24
2023-03-26T10:23:10.000Z,14.31
2023-03-26T10:24:10.000Z,14.34
2023-03-26T10:25:10.000Z,14.42
2023-03-26T10:26:10.000Z,14.54
2023-03-26T10:27:10.000Z,14.64
2023-03-26T10:28:10.000Z,14.67
2023-03-26T10:29:10.000Z,14.75
2023-03-26T10:30:10.000Z,14.82
2023-03-26T10:31:10.000Z,14.83
2023-03-26T10:32:10.000Z,14.85
2023-03-26T10:33:10.000Z,14.85
2023-03-26T10:34:10.000Z,14.83
2023-03-26T10:35:10.000Z,14.80
2023-03-26T10:36:10.000Z,14.79
2023-03-26T10:37:10.000Z,14.75
2023-03-26T10:38:10.000Z,14.79
2023-03-26T10:39:10.000Z,14.80
2023-03-26T10:40:10.000Z,14.80
2023-03-26T10:41:10.000Z,14.83
2023-03-26T10:42:10.000Z,14.85
2023-03-26T10:43:10.000Z,14.79
2023-03-26T10:44:10.000Z,14.80
2023-03-26T10:45:10.000Z,14.80
2023-03-26T10:46:10.000Z,14.80
2023-03-26T10:47:10.000Z,14.75
2023-03-26T10:48:10.000Z,14.78
2023-03-26T10:49:10.000Z,14.82
2023-03-26T10:50:10.000Z,14.82
2023-03-26T10:51:10.000Z,14.85
2023-03-26T10:52:10.000Z,14.87
2023-03-26T10:53:10.000Z,14.91
2023-03-26T10:54:10.000Z,14.93
2023-03-26T10:55:10.000Z,14.91
2023-03-26T10:56:10.000Z,14.90
2023-03-26T10:57:10.000Z,14.90
2023-03-26T10:58:09.000Z,14.91
2023-03-26T10:59:09.000Z,14.97
2023-03-26T11:00:09.000Z,15.00
2023-03-26T11:01:09.000Z,15.01
2023-03-26T11:02:09.000Z,15.05
2023-03-26T11:03:09.000Z,15.13
2023-03-26T11:04:09.000Z,15.16
2023-03-26T11:05:09.000Z,15.19
2023-03-26T11:06:09.000Z,15.22
2023-03-26T11:07:09.000Z,15.20
2023-03-26T11:08:09.000Z,15.20
2023-03-26T11:09:09.000Z,15.27
2023-03-26T11:10:09.000Z,15.28
2023-03-26T11:11:09.000Z,15.28
2023-03-26T11:12:09.000Z,15.20
2023-03-26T11:13:09.000Z,15.18
2023-03-26T11:14:09.000Z,15.12
2023-03-26T11:15:09.000Z,15.09
2023-03-26T11:16:09.000Z,15.09
2023-03-26T11:17:09.000Z,15.01
2023-03-26T11:18:09.000Z,15.00
2023-03-26T11:19:09.000Z,14.98
2023-03-26T11:20:09.000Z,14.91
2023-03-26T11:21:09.000Z,14.90
2023-03-26T11:22:09.000Z,14.85
2023-03-26T11:23:09.000Z,14.82
2023-03-26T11:24:09.000Z,14.75
2023-03-26T11:25:09.000Z,14.74
2023-03-26T11:26:09.000Z,14.72
2023-03-26T11:27:09.000Z,14.72
2023-03-26T11:28:09.000Z,14.71
2023-03-26T11:29:09.000Z,14.67
2023-03-26T11:30:09.000Z,14.74
2023-03-26T11:31:09.000Z,14.74
2023-03-26T11:32:09.000Z,14.82
2023-03-26T11:33:09.000Z,14.87
2023-03-26T11:34:09.000Z,14.97
2023-03-26T11:35:09.000Z,15.01
2023-03-26T11:36:09.000Z,15.09
2023-03-26T11:37:09.000Z,15.16
2023-03-26T11:38:09.000Z,15.19
2023-03-26T11:39:09.000Z,15.23
2023-03-26T11:40:09.000Z,15.22
2023-03-26T11:41:09.000Z,15.19
2023-03-26T11:42:09.000Z,15.23
2023-03-26T11:43:09.000Z,15.22
2023-03-26T11:44:09.000Z,15.20
2023-03-26T11:45:09.000Z,15.19
2023-03-26T11:46:09.000Z,15.15
2023-03-26T11:47:09.000Z,15.09
2023-03-26T11:48:09.000Z,15.04
2023-03-26T11:49:09.000Z,15.03
2023-03-26T11:50:09.000Z,14.98
2023-03-26T11:51:09.000Z,14.90
2023-03-26T11:52:09.000Z,14.83
2023-03-26T11:53:09.000Z,14.80
2023-03-26T11:54:09.000Z,14.74
2023-03-26T11:55:09.000Z,14.69
2023-03-26T11:56:09.000Z,14.63
2023-03-26T11:57:09.000Z,14.57
2023-03-26T11:58:09.000Z,14.53
2023-03-26T11:59:09.000Z,14.48
2023-03-26T12:00:09.000Z,14.46
2023-03-26T12:01:09.000Z,14.42
2023-03-26T12:02:09.000Z,14.41
2023-03-26T12:03:09.000Z,14.36
2023-03-26T12:04:09.000Z,14.35
2023-03-26T12:05:09.000Z,14.27
2023-03-26T12:06:09.000Z,14.27
2023-03-26T12:07:09.000Z,14.26
2023-03-26T12:08:09.000Z,14.21
2023-03-26T12:09:09.000Z,14.19
2023-03-26T12:10:09.000Z,14.16
2023-03-26T12:11:09.000Z,14.17
2023-03-26T12:12:09.000Z,14.13
2023-03-26T12:13:09.000Z,14.12
2023-03-26T12:14:09.000Z,14.12
2023-03-26T12:15:09.000Z,14.13
2023-03-26T12:16:09.000Z,14.20
2023-03-26T12:17:09.000Z,14.20
2023-03-26T12:18:09.000Z,14.23
2023-03-26T12:19:09.000Z,14.24
2023-03-26T12:20:09.000Z,14.31
2023-03-26T12:21:09.000Z,14.35
2023-03-26T12:22:09.000Z,14.44
2023-03-26T12:23:09.000Z,14.49
2023-03-26T12:24:09.000Z,14.56
2023-03-26T12:25:09.000Z,14.57
2023-03-26T12:26:09.000Z,14.59
2023-03-26T12:27:09.000Z,14.60
2023-03-26T12:28:09.000Z,14.61
2023-03-26T12:29:09.000Z,14.60
2023-03-26T12:30:09.000Z,14.61
2023-03-26T12:31:09.000Z,14.63
2023-03-26T12:32:09.000Z,14.63
2023-03-26T12:33:09.000Z,14.60
2023-03-26T12:34:09.000Z,14.57
2023-03-26T12:35:09.000Z,14.54
2023-03-26T12:36:09.000Z,14.56
2023-03-26T12:37:09.000Z,14.54
2023-03-26T12:38:09.000Z,14.49
2023-03-26T12:38:09.000Z,14.49
2023-03-26T12:39:09.000Z,14.44
2023-03-26T12:39:09.000Z,14.44
2023-03-26T12:40:09.000Z,14.41
2023-03-26T12:40:09.000Z,14.41
2023-03-26T12:41:08.000Z,14.35
2023-03-26T12:41:08.000Z,14.35
2023-03-26T12:42:08.000Z,14.31
2023-03-26T12:42:08.000Z,14.31